Time;durP1;ratioP1;P1;durP2;ratioP2;P2;SDS_P1;SDS_P2;PMS_P1;PMS_P2;Temp;Humidity;BMP_temperature;BMP_pressure;BME280_temperature;BME280_humidity;BME280_pressure;Samples;Min_cycle;Max_cycle;Signal;HPM_P1;HPM_P2
2023/01/12 06:43:34;;;;;;;15.90;2.45;;;;;;;;;;5109659;27;20434;-60
2023/01/12 06:46:00;;;;;;;10.75;2.50;;;;;;;;;;5109469;28;20035;-57
2023/01/12 06:48:26;;;;;;;14.50;2.55;;;;;;;;;;5120559;28;20145;-59
2023/01/12 06:51:00;;;;;;;12.93;2.05;;;;;;;;;;5114908;28;20055;-57
2023/01/12 06:53:26;;;;;;;13.38;2.15;;;;;;;;;;5118055;28;20038;-59
2023/01/12 06:55:52;;;;;;;23.50;2.20;;;;;;;;;;5115082;28;20023;-62
2023/01/12 06:58:18;;;;;;;17.27;2.13;;;;;;;;;;5119160;28;20470;-57
2023/01/12 07:00:44;;;;;;;12.77;2.30;;;;;;;;;;5117397;28;20027;-58
2023/01/12 07:03:17;;;;;;;20.38;2.83;;;;;;;;;;5109369;28;20031;-59
2023/01/12 07:05:43;;;;;;;15.88;2.20;;;;;;;;;;5122997;28;20492;-58
2023/01/12 07:08:10;;;;;;;17.05;3.78;;;;;;;;;;5126554;28;20020;-57
2023/01/12 07:10:36;;;;;;;16.23;2.70;;;;;;;;;;5109131;28;20392;-58
2023/01/12 07:13:03;;;;;;;17.00;2.20;;;;;;;;;;5109760;28;20070;-59
2023/01/12 07:15:29;;;;;;;18.70;2.13;;;;;;;;;;5111931;28;20058;-58
2023/01/12 07:17:58;;;;;;;11.77;2.38;;;;;;;;;;5130099;28;20031;-57
2023/01/12 07:20:24;;;;;;;14.88;2.20;;;;;;;;;;5130152;28;20055;-57
2023/01/12 07:22:50;;;;;;;15.95;3.33;;;;;;;;;;5129743;28;20054;-57
2023/01/12 07:25:16;;;;;;;14.43;2.50;;;;;;;;;;5129308;28;20393;-57
2023/01/12 07:27:52;;;;;;;26.15;2.90;;;;;;;;;;5129665;28;20037;-56
2023/01/12 07:30:20;;;;;;;10.45;2.28;;;;;;;;;;5129803;28;20380;-58
2023/01/12 07:32:46;;;;;;;7.00;2.35;;;;;;;;;;5117707;28;20073;-56
2023/01/12 07:35:12;;;;;;;14.63;2.03;;;;;;;;;;5108699;28;20542;-58
2023/01/12 07:37:38;;;;;;;19.52;2.75;;;;;;;;;;5112661;28;20054;-58
2023/01/12 07:40:04;;;;;;;10.02;1.85;;;;;;;;;;5121511;28;20023;-57
2023/01/12 07:42:32;;;;;;;9.57;2.10;;;;;;;;;;5122181;28;20477;-58
2023/01/12 07:44:58;;;;;;;13.02;2.08;;;;;;;;;;5114529;28;20050;-58
2023/01/12 07:47:26;;;;;;;8.82;3.38;;;;;;;;;;5129239;28;20150;-57
2023/01/12 07:49:52;;;;;;;12.55;2.65;;;;;;;;;;5129125;28;20128;-58
2023/01/12 07:52:18;;;;;;;9.00;1.80;;;;;;;;;;5114983;28;20191;-58
2023/01/12 07:54:44;;;;;;;6.93;1.90;;;;;;;;;;5095998;28;20032;-57
2023/01/12 07:57:11;;;;;;;11.82;2.22;;;;;;;;;;5095136;28;20052;-58
2023/01/12 07:59:37;;;;;;;10.43;2.42;;;;;;;;;;5094710;28;20028;-57
2023/01/12 08:02:03;;;;;;;3.88;1.65;;;;;;;;;;5094711;28;20040;-56
2023/01/12 08:04:29;;;;;;;10.73;2.05;;;;;;;;;;5094698;28;20416;-58
2023/01/12 08:06:56;;;;;;;5.28;1.88;;;;;;;;;;5094305;28;20050;-57
2023/01/12 08:09:22;;;;;;;4.55;1.38;;;;;;;;;;5094705;28;20378;-57
2023/01/12 08:11:48;;;;;;;5.45;2.15;;;;;;;;;;5094565;28;20515;-57
2023/01/12 08:14:26;;;;;;;7.18;1.75;;;;;;;;;;5094597;28;20024;-56
2023/01/12 08:16:54;;;;;;;11.88;1.73;;;;;;;;;;5094235;28;20604;-55
2023/01/12 08:19:22;;;;;;;5.88;2.00;;;;;;;;;;5094456;28;20398;-55
2023/01/12 08:21:51;;;;;;;6.70;1.75;;;;;;;;;;5094293;28;20028;-57
2023/01/12 08:24:20;;;;;;;7.22;2.08;;;;;;;;;;5094370;28;20367;-56
2023/01/12 08:26:48;;;;;;;3.35;1.17;;;;;;;;;;5094091;28;20027;-56
2023/01/12 08:29:14;;;;;;;;;;;;;;;;;;5076686;28;20020;-56
2023/01/12 08:31:40;;;;;;;14.45;2.38;;;;;;;;;;5094261;28;19904;-58
2023/01/12 08:34:06;;;;;;;9.90;1.58;;;;;;;;;;5094211;28;20032;-56
2023/01/12 08:36:33;;;;;;;13.15;1.50;;;;;;;;;;5094005;28;20028;-57
2023/01/12 08:39:00;;;;;;;4.97;1.10;;;;;;;;;;5094157;28;20032;-56
2023/01/12 08:41:32;;;;;;;8.50;1.50;;;;;;;;;;5093992;28;20020;-57
2023/01/12 08:44:02;;;;;;;6.93;1.52;;;;;;;;;;5094158;28;20024;-57
2023/01/12 08:46:35;;;;;;;8.15;1.45;;;;;;;;;;5093940;28;20108;-55
2023/01/12 08:49:03;;;;;;;5.97;1.20;;;;;;;;;;5075685;28;20024;-56
2023/01/12 08:51:29;;;;;;;2.85;1.40;;;;;;;;;;5093893;28;20020;-56
2023/01/12 08:53:55;;;;;;;3.15;1.15;;;;;;;;;;5093861;28;20020;-57
2023/01/12 08:56:21;;;;;;;4.22;1.42;;;;;;;;;;5093468;28;20031;-56
2023/01/12 08:58:47;;;;;;;12.55;1.98;;;;;;;;;;5093935;28;20024;-57
2023/01/12 09:01:15;;;;;;;8.73;1.50;;;;;;;;;;5074710;28;20379;-57
2023/01/12 09:03:43;;;;;;;7.07;1.38;;;;;;;;;;5073383;28;20070;-57
2023/01/12 09:06:09;;;;;;;;;;;;;;;;;;5072498;28;20017;-58
2023/01/12 09:08:35;;;;;;;4.45;1.05;;;;;;;;;;5073421;28;20388;-58
2023/01/12 09:11:02;;;;;;;1.83;0.93;;;;;;;;;;5073380;28;20048;-58
2023/01/12 09:13:28;;;;;;;4.53;1.38;;;;;;;;;;5073379;28;20086;-59
2023/01/12 09:15:54;;;;;;;6.45;1.70;;;;;;;;;;5073117;28;20446;-59
2023/01/12 09:18:20;;;;;;;1.38;0.93;;;;;;;;;;5073239;28;20099;-58
2023/01/12 09:20:46;;;;;;;5.65;1.35;;;;;;;;;;5073175;28;20127;-59
2023/01/12 09:23:12;;;;;;;6.45;1.67;;;;;;;;;;5073047;28;20418;-59
2023/01/12 09:25:38;;;;;;;7.18;1.30;;;;;;;;;;5072802;28;20028;-60
2023/01/12 09:28:04;;;;;;;5.68;1.20;;;;;;;;;;5072981;28;20482;-58
2023/01/12 09:30:30;;;;;;;4.18;1.20;;;;;;;;;;5072984;28;20028;-58
2023/01/12 09:32:56;;;;;;;10.15;2.05;;;;;;;;;;5072991;28;20033;-57
2023/01/12 09:35:22;;;;;;;6.63;1.52;;;;;;;;;;5072804;28;20115;-58
2023/01/12 09:37:48;;;;;;;4.05;1.48;;;;;;;;;;5072853;28;20026;-60
2023/01/12 09:40:14;;;;;;;3.47;1.58;;;;;;;;;;5072828;28;20397;-60
2023/01/12 09:48:11;;;;;;;3.65;1.42;;;;;;;;;;5072952;28;20039;-58
2023/01/12 09:50:37;;;;;;;;;;;;;;;;;;5073247;28;20024;-57
2023/01/12 09:53:03;;;;;;;6.38;1.65;;;;;;;;;;5072514;28;19930;-56
2023/01/12 09:55:35;;;;;;;2.45;0.70;;;;;;;;;;5072213;28;20020;-59
2023/01/12 09:58:01;;;;;;;2.95;1.15;;;;;;;;;;5072551;28;20146;-60
2023/01/12 10:00:27;;;;;;;4.22;1.05;;;;;;;;;;5084575;28;20502;-58
2023/01/12 10:03:23;;;;;;;3.70;1.98;;;;;;;;;;5092669;28;20024;-57
2023/01/12 10:05:54;;;;;;;1.58;0.98;;;;;;;;;;5092512;28;20020;-60
2023/01/12 10:08:20;;;;;;;2.38;0.82;;;;;;;;;;5092704;28;20069;-58
2023/01/12 10:11:00;;;;;;;2.58;1.10;;;;;;;;;;5092456;28;20020;-58
2023/01/12 10:13:29;;;;;;;6.13;1.20;;;;;;;;;;5092409;28;20052;-59
2023/01/12 10:16:01;;;;;;;1.73;0.95;;;;;;;;;;5091958;28;20031;-58
2023/01/12 10:18:30;;;;;;;2.40;0.95;;;;;;;;;;5092355;28;20081;-58
2023/01/12 10:20:56;;;;;;;1.95;0.68;;;;;;;;;;5092364;28;20024;-59
2023/01/12 10:23:26;;;;;;;6.75;1.23;;;;;;;;;;5092422;28;20020;-59
2023/01/12 10:25:54;;;;;;;4.07;0.90;;;;;;;;;;5091758;28;20031;-58
2023/01/12 10:28:25;;;;;;;3.05;1.25;;;;;;;;;;5092204;28;20035;-58
2023/01/12 10:30:52;;;;;;;1.70;0.88;;;;;;;;;;5092238;28;20023;-58
2023/01/12 10:33:22;;;;;;;1.02;0.63;;;;;;;;;;5092248;28;20390;-59
2023/01/12 10:35:49;;;;;;;5.03;1.23;;;;;;;;;;5091718;28;20123;-59
2023/01/12 10:38:23;;;;;;;1.20;0.80;;;;;;;;;;5092158;28;20482;-58
2023/01/12 10:41:08;;;;;;;2.05;0.80;;;;;;;;;;5092098;28;20107;-56
2023/01/12 10:43:34;;;;;;;3.92;1.02;;;;;;;;;;5092142;28;20371;-56
2023/01/12 10:46:03;;;;;;;2.53;0.90;;;;;;;;;;5091971;28;20462;-59
2023/01/12 10:48:29;;;;;;;2.65;1.00;;;;;;;;;;5091900;28;20030;-59
2023/01/12 10:50:59;;;;;;;2.03;1.07;;;;;;;;;;5091846;28;20050;-59
2023/01/12 10:53:30;;;;;;;0.82;0.70;;;;;;;;;;5091861;28;20082;-57
2023/01/12 10:55:57;;;;;;;2.00;0.90;;;;;;;;;;5091564;28;20032;-59
2023/01/12 10:58:28;;;;;;;1.48;1.10;;;;;;;;;;5091979;28;20039;-58
2023/01/12 11:00:54;;;;;;;1.17;0.80;;;;;;;;;;5075641;28;20025;-58
2023/01/12 11:03:36;;;;;;;4.00;0.90;;;;;;;;;;5071638;28;20486;-56
2023/01/12 11:06:15;;;;;;;0.63;0.63;;;;;;;;;;5071385;28;20025;-56
2023/01/12 11:08:41;;;;;;;1.50;0.85;;;;;;;;;;5071699;28;20020;-56
2023/01/12 11:11:22;;;;;;;5.57;1.00;;;;;;;;;;5071780;28;20038;-56
2023/01/12 11:13:51;;;;;;;4.32;0.73;;;;;;;;;;5071862;28;20238;-57
2023/01/12 11:16:20;;;;;;;2.63;0.90;;;;;;;;;;5071578;28;20086;-57
2023/01/12 11:18:50;;;;;;;7.88;1.70;;;;;;;;;;5071717;28;20044;-57
2023/01/12 11:21:18;;;;;;;2.20;1.08;;;;;;;;;;5071828;28;20031;-57
2023/01/12 11:24:03;;;;;;;1.95;0.93;;;;;;;;;;5071674;28;20017;-57
2023/01/12 11:26:49;;;;;;;1.88;0.65;;;;;;;;;;5071241;28;20028;-57
2023/01/12 11:29:27;;;;;;;2.90;1.20;;;;;;;;;;5073367;28;20100;-57
2023/01/12 11:31:55;;;;;;;3.80;0.90;;;;;;;;;;5075508;28;20020;-57
2023/01/12 11:34:24;;;;;;;2.20;0.70;;;;;;;;;;5075211;28;20553;-56
2023/01/12 11:36:52;;;;;;;1.42;1.00;;;;;;;;;;5074840;28;20035;-55
2023/01/12 11:39:23;;;;;;;3.92;0.60;;;;;;;;;;5075281;28;20059;-55
2023/01/12 11:44:40;;;;;;;2.33;0.85;;;;;;;;;;5069637;28;20055;-56
2023/01/12 11:47:12;;;;;;;1.55;0.80;;;;;;;;;;5074645;28;20624;-57
2023/01/12 11:49:38;;;;;;;3.08;0.90;;;;;;;;;;5074884;28;20016;-57
2023/01/12 11:52:07;;;;;;;1.70;0.98;;;;;;;;;;5074891;28;20139;-56
2023/01/12 11:54:33;;;;;;;5.88;0.75;;;;;;;;;;5074894;28;20024;-55
2023/01/12 11:57:17;;;;;;;5.72;0.60;;;;;;;;;;5074443;28;20440;-58
2023/01/12 11:59:46;;;;;;;3.03;1.20;;;;;;;;;;5080773;28;20502;-56
2023/01/12 12:02:15;;;;;;;1.75;1.20;;;;;;;;;;5094832;28;20039;-56
2023/01/12 12:04:45;;;;;;;1.30;1.15;;;;;;;;;;5094713;28;20546;-57
2023/01/12 12:07:28;;;;;;;3.28;0.80;;;;;;;;;;5094926;28;20093;-57
2023/01/12 12:10:03;;;;;;;3.10;0.82;;;;;;;;;;5076744;28;20016;-58
2023/01/12 12:12:32;;;;;;;0.50;0.50;;;;;;;;;;5094799;28;20474;-56
2023/01/12 12:15:04;;;;;;;3.28;0.70;;;;;;;;;;5091952;22;20045;-62
2023/01/12 12:17:41;;;;;;;3.03;0.77;;;;;;;;;;5054255;28;20561;-60
2023/01/12 12:20:13;;;;;;;3.40;0.80;;;;;;;;;;5054116;28;20032;-61
2023/01/12 12:22:49;;;;;;;1.42;0.70;;;;;;;;;;5053782;28;20618;-62
2023/01/12 12:25:15;;;;;;;1.75;0.63;;;;;;;;;;5044194;28;20024;-60
2023/01/12 12:27:41;;;;;;;2.15;0.70;;;;;;;;;;5054091;28;20029;-61
2023/01/12 12:30:07;;;;;;;1.17;0.85;;;;;;;;;;5053979;28;20079;-61
2023/01/12 12:32:38;;;;;;;1.45;0.57;;;;;;;;;;5052444;28;20498;-63
2023/01/12 12:35:33;;;;;;;2.20;0.68;;;;;;;;;;5051519;28;20070;-58
2023/01/12 12:37:59;;;;;;;7.07;1.40;;;;;;;;;;5000516;28;20034;-61
2023/01/12 12:46:37;;;;;;;5.55;1.17;;;;;;;;;;5051637;28;20036;-63
2023/01/12 12:49:03;;;;;;;20.25;1.52;;;;;;;;;;5035996;28;20468;-62
2023/01/12 12:51:31;;;;;;;8.75;1.83;;;;;;;;;;5053482;28;20040;-61
2023/01/12 12:53:57;;;;;;;10.77;1.48;;;;;;;;;;5051239;28;20757;-62
2023/01/12 12:56:24;;;;;;;9.13;1.50;;;;;;;;;;5053097;28;20032;-63
2023/01/12 12:58:51;;;;;;;7.03;1.00;;;;;;;;;;5052153;28;20079;-62
2023/01/12 13:01:23;;;;;;;10.20;1.57;;;;;;;;;;5053362;28;20059;-61
2023/01/12 13:03:49;;;;;;;5.30;0.95;;;;;;;;;;5053223;28;20457;-65
2023/01/12 13:06:31;;;;;;;11.40;0.85;;;;;;;;;;5052876;28;20136;-63
2023/01/12 13:08:58;;;;;;;6.22;1.10;;;;;;;;;;5053143;28;20021;-64
2023/01/12 13:11:46;;;;;;;6.10;1.92;;;;;;;;;;5053190;28;20464;-64
2023/01/12 13:14:12;;;;;;;;;;;;;;;;;;5053328;28;20032;-62
2023/01/12 13:16:38;;;;;;;18.63;11.55;;;;;;;;;;5051135;28;19909;-63
2023/01/12 13:19:05;;;;;;;15.07;10.93;;;;;;;;;;5052767;28;20394;-61
2023/01/12 13:21:54;;;;;;;15.45;10.52;;;;;;;;;;5052870;28;20042;-63
2023/01/12 13:24:30;;;;;;;20.42;9.48;;;;;;;;;;5052813;28;20175;-62
2023/01/12 13:26:59;;;;;;;13.45;7.53;;;;;;;;;;5052652;28;20026;-63
2023/01/12 13:29:28;;;;;;;15.45;7.43;;;;;;;;;;5051651;28;20124;-66
2023/01/12 13:31:54;;;;;;;20.48;6.95;;;;;;;;;;5052843;28;20021;-63
2023/01/12 13:34:40;;;;;;;14.10;6.30;;;;;;;;;;5052715;28;20044;-64
2023/01/12 13:37:06;;;;;;;16.13;6.93;;;;;;;;;;5052830;28;20021;-64
2023/01/12 13:39:35;;;;;;;28.92;6.93;;;;;;;;;;5052501;28;20033;-65
2023/01/12 13:44:46;;;;;;;18.67;6.13;;;;;;;;;;5051957;28;20059;-64
2023/01/12 13:47:18;;;;;;;13.98;5.68;;;;;;;;;;5052509;28;20033;-63
2023/01/12 13:49:50;;;;;;;11.15;4.25;;;;;;;;;;5052476;28;20025;-63
2023/01/12 13:52:19;;;;;;;6.63;4.60;;;;;;;;;;5051832;28;20048;-64
2023/01/12 13:54:49;;;;;;;16.65;4.53;;;;;;;;;;5051858;28;20032;-63
2023/01/12 13:57:23;;;;;;;14.85;4.13;;;;;;;;;;5050976;28;20029;-63
2023/01/12 14:00:20;;;;;;;14.20;4.43;;;;;;;;;;5052270;28;20049;-63
2023/01/12 14:02:46;;;;;;;;;;;;;;;;;;4994062;28;20088;-64
2023/01/12 14:05:31;;;;;;;10.73;3.80;;;;;;;;;;5009766;28;20451;-62
2023/01/12 14:08:15;;;;;;;6.72;3.78;;;;;;;;;;5010063;28;20042;-62
2023/01/12 14:10:47;;;;;;;7.50;3.47;;;;;;;;;;5010204;28;20056;-63
2023/01/12 14:13:16;;;;;;;6.22;3.03;;;;;;;;;;5010044;28;20113;-62
2023/01/12 14:18:29;;;;;;;13.85;3.50;;;;;;;;;;5010135;28;20438;-62
2023/01/12 14:20:54;;;;;;;;;;;;;;;;;;5010565;28;20034;-65
2023/01/12 14:23:26;;;;;;;18.83;3.63;;;;;;;;;;5009780;28;20338;-62
2023/01/12 14:26:04;;;;;;;17.08;4.05;;;;;;;;;;5009613;28;20034;-63
2023/01/12 14:28:31;;;;;;;9.55;3.15;;;;;;;;;;5009930;28;20037;-63
2023/01/12 14:30:57;;;;;;;13.88;2.95;;;;;;;;;;5009862;28;20110;-63
2023/01/12 14:33:24;;;;;;;12.23;2.65;;;;;;;;;;4993330;28;20030;-63
2023/01/12 14:35:53;;;;;;;;;;;;;;;;;;5009959;28;20057;-63
2023/01/12 14:38:19;;;;;;;8.75;2.53;;;;;;;;;;5016784;28;19974;-63
2023/01/12 14:46:23;;;;;;;12.27;2.30;;;;;;;;;;5052139;28;20490;-63
2023/01/12 14:46:45;;;;;;;2.92;1.65;;;;;;;;;;5051406;28;20625;-64
2023/01/12 14:49:24;;;;;;;4.85;1.40;;;;;;;;;;5051625;28;20025;-64
2023/01/12 14:51:55;;;;;;;8.48;1.70;;;;;;;;;;5051545;28;20021;-63
2023/01/12 14:54:31;;;;;;;5.70;2.17;;;;;;;;;;5051384;28;20096;-64
2023/01/12 14:57:20;;;;;;;5.78;1.48;;;;;;;;;;5051382;28;20027;-63
2023/01/12 14:59:47;;;;;;;5.55;1.58;;;;;;;;;;5046019;28;20033;-63
2023/01/12 15:02:13;;;;;;;10.38;1.70;;;;;;;;;;5051352;28;20072;-64
2023/01/12 15:04:53;;;;;;;9.73;2.38;;;;;;;;;;5053907;28;20052;-64
2023/01/12 15:07:19;;;;;;;16.08;2.38;;;;;;;;;;5055358;28;20036;-64
2023/01/12 15:09:53;;;;;;;12.45;2.33;;;;;;;;;;5055506;28;20100;-66
2023/01/12 15:12:28;;;;;;;11.70;2.10;;;;;;;;;;5055425;28;20025;-65
2023/01/12 15:15:11;;;;;;;8.85;2.25;;;;;;;;;;5054931;28;20487;-67
2023/01/12 15:25:55;;;;;;;11.98;2.20;;;;;;;;;;5055116;28;20079;-62
2023/01/12 15:28:21;;;;;;;11.27;2.25;;;;;;;;;;5055271;28;20021;-65
2023/01/12 15:30:47;;;;;;;12.93;2.20;;;;;;;;;;5055097;28;20017;-65
2023/01/12 15:33:15;;;;;;;12.65;2.38;;;;;;;;;;5054966;28;20614;-67
2023/01/12 15:35:44;;;;;;;26.13;2.15;;;;;;;;;;5053360;28;20402;-66
2023/01/12 15:38:12;;;;;;;15.65;2.10;;;;;;;;;;5054699;28;20053;-66
2023/01/12 15:40:38;;;;;;;18.10;2.50;;;;;;;;;;5054753;28;20021;-66
2023/01/12 15:43:04;;;;;;;10.25;2.42;;;;;;;;;;5054767;28;20395;-65
2023/01/12 15:45:40;;;;;;;11.85;2.25;;;;;;;;;;5054408;28;20032;-65
2023/01/12 15:48:07;;;;;;;12.32;2.28;;;;;;;;;;5054477;28;20021;-64
2023/01/12 15:50:33;;;;;;;15.23;1.95;;;;;;;;;;5054347;28;20443;-64
2023/01/12 15:53:00;;;;;;;9.10;2.65;;;;;;;;;;5054423;28;20029;-64
2023/01/12 15:55:29;;;;;;;16.15;2.53;;;;;;;;;;5054186;28;20049;-66
2023/01/12 15:57:55;;;;;;;12.70;1.92;;;;;;;;;;5054492;28;20551;-66
2023/01/12 16:00:22;;;;;;;27.63;8.73;;;;;;;;;;5053089;28;20036;-65
2023/01/12 16:02:49;;;;;;;55.95;23.58;;;;;;;;;;5053032;28;20051;-66
2023/01/12 16:05:16;;;;;;;84.90;32.90;;;;;;;;;;5052706;28;20032;-66
2023/01/12 16:07:42;;;;;;;64.50;27.17;;;;;;;;;;5054281;28;20506;-66
2023/01/12 16:10:09;;;;;;;59.95;25.95;;;;;;;;;;5054326;28;20025;-66
2023/01/12 16:12:36;;;;;;;66.73;24.97;;;;;;;;;;5054296;28;20044;-66
2023/01/12 16:15:03;;;;;;;65.78;25.55;;;;;;;;;;5053254;28;20149;-66
2023/01/12 16:17:29;;;;;;;71.97;24.60;;;;;;;;;;5052933;28;20036;-65
2023/01/12 16:19:55;;;;;;;78.28;21.63;;;;;;;;;;5054009;28;20029;-65
2023/01/12 16:22:25;;;;;;;63.38;19.45;;;;;;;;;;5053851;28;20029;-65
2023/01/12 16:24:52;;;;;;;63.67;19.52;;;;;;;;;;5053714;28;20027;-64
2023/01/12 16:27:19;;;;;;;70.57;24.52;;;;;;;;;;5053979;28;20122;-64
2023/01/12 16:29:45;;;;;;;88.28;28.58;;;;;;;;;;5053878;28;20036;-64
2023/01/12 16:32:11;;;;;;;113.85;39.17;;;;;;;;;;5053762;28;20033;-63
2023/01/12 16:34:37;;;;;;;145.88;54.05;;;;;;;;;;5052122;28;20049;-61
2023/01/12 16:37:03;;;;;;;148.77;49.42;;;;;;;;;;5053556;28;20079;-62
2023/01/12 16:39:29;;;;;;;145.02;46.08;;;;;;;;;;5053598;28;20025;-62
2023/01/12 16:42:05;;;;;;;126.78;45.60;;;;;;;;;;5053570;28;20028;-61
2023/01/12 16:44:32;;;;;;;177.80;63.85;;;;;;;;;;5052149;28;20035;-63
2023/01/12 16:46:58;;;;;;;127.80;49.20;;;;;;;;;;5053343;28;20096;-62
2023/01/12 16:49:24;;;;;;;122.75;44.70;;;;;;;;;;5053274;28;20029;-65
2023/01/12 16:51:50;;;;;;;205.48;68.20;;;;;;;;;;5053457;28;20112;-65
2023/01/12 16:54:17;;;;;;;125.80;47.80;;;;;;;;;;5053161;28;20039;-63
2023/01/12 16:56:43;;;;;;;140.23;53.83;;;;;;;;;;5053245;28;20021;-63
2023/01/12 16:59:09;;;;;;;134.45;48.72;;;;;;;;;;5053375;28;20021;-65
2023/01/12 17:01:35;;;;;;;113.70;49.17;;;;;;;;;;5053179;28;20368;-64
2023/01/12 17:04:01;;;;;;;138.27;48.63;;;;;;;;;;5053234;28;20028;-63
2023/01/12 17:06:29;;;;;;;121.72;46.25;;;;;;;;;;5052942;28;20028;-65
2023/01/12 17:08:55;;;;;;;137.43;46.00;;;;;;;;;;5051882;28;20025;-63
2023/01/12 17:11:26;;;;;;;104.35;41.85;;;;;;;;;;5052969;28;20057;-63
2023/01/12 17:13:56;;;;;;;100.70;39.60;;;;;;;;;;5053175;28;20028;-64
2023/01/12 17:16:23;;;;;;;110.93;41.38;;;;;;;;;;5052693;28;20063;-63
2023/01/12 17:18:49;;;;;;;119.20;40.88;;;;;;;;;;5053108;28;20017;-67
2023/01/12 17:21:16;;;;;;;91.03;37.70;;;;;;;;;;5053114;28;20029;-70
2023/01/12 17:23:43;;;;;;;98.80;37.42;;;;;;;;;;5051743;28;20029;-69
2023/01/12 17:26:16;;;;;;;90.85;36.50;;;;;;;;;;5051856;28;20140;-66
2023/01/12 17:28:42;;;;;;;54.95;21.73;;;;;;;;;;5052890;28;20371;-66
2023/01/12 17:31:09;;;;;;;52.60;19.13;;;;;;;;;;5052897;28;20036;-68
2023/01/12 17:33:35;;;;;;;62.93;20.30;;;;;;;;;;5052742;28;20021;-66
2023/01/12 17:36:03;;;;;;;56.53;18.70;;;;;;;;;;5052647;28;20379;-64
2023/01/12 17:38:29;;;;;;;63.60;20.23;;;;;;;;;;5051420;28;20025;-65
2023/01/12 17:40:55;;;;;;;58.88;18.23;;;;;;;;;;5052621;28;20021;-67
2023/01/12 17:43:21;;;;;;;48.08;17.60;;;;;;;;;;5052444;28;20539;-67
2023/01/12 17:45:47;;;;;;;48.13;18.65;;;;;;;;;;5052327;28;20059;-67
2023/01/12 17:48:16;;;;;;;52.95;18.10;;;;;;;;;;5051102;28;20517;-65
2023/01/12 17:50:43;;;;;;;50.33;18.67;;;;;;;;;;5052310;28;20060;-66
2023/01/12 17:53:09;;;;;;;44.20;17.25;;;;;;;;;;5052779;28;20378;-66
2023/01/12 17:55:35;;;;;;;44.40;17.25;;;;;;;;;;5050427;28;20390;-66
2023/01/12 17:58:01;;;;;;;65.32;17.20;;;;;;;;;;5052266;28;20029;-66
2023/01/12 18:00:27;;;;;;;51.47;16.77;;;;;;;;;;5050926;28;20075;-66
2023/01/12 18:02:53;;;;;;;42.28;14.65;;;;;;;;;;5052283;28;20483;-65
2023/01/12 18:05:19;;;;;;;48.88;15.00;;;;;;;;;;5050617;28;20021;-65
2023/01/12 18:07:45;;;;;;;41.05;15.38;;;;;;;;;;5050181;28;20025;-66
2023/01/12 18:10:11;;;;;;;48.35;16.65;;;;;;;;;;5050941;28;20025;-66
2023/01/12 18:12:37;;;;;;;50.90;16.60;;;;;;;;;;5051882;28;20036;-66
2023/01/12 18:15:04;;;;;;;45.28;14.77;;;;;;;;;;5079285;22;20036;-72
2023/01/12 18:17:30;;;;;;;45.57;14.43;;;;;;;;;;5072188;28;20489;-73
2023/01/12 18:19:57;;;;;;;46.05;13.77;;;;;;;;;;5072065;28;20282;-73
2023/01/12 18:22:24;;;;;;;35.67;13.38;;;;;;;;;;5053949;28;20024;-69
2023/01/12 18:24:50;;;;;;;37.35;12.85;;;;;;;;;;5054337;28;20032;-70
2023/01/12 18:27:16;;;;;;;50.45;13.15;;;;;;;;;;5071977;28;20021;-69
2023/01/12 18:29:42;;;;;;;35.90;11.82;;;;;;;;;;5072092;28;20029;-66
2023/01/12 18:32:08;;;;;;;34.75;12.90;;;;;;;;;;5072047;28;20020;-69
2023/01/12 18:34:36;;;;;;;36.63;13.20;;;;;;;;;;5071651;28;20076;-70
2023/01/12 18:37:02;;;;;;;46.47;11.95;;;;;;;;;;5070238;28;20405;-69
2023/01/12 18:39:28;;;;;;;43.65;11.75;;;;;;;;;;5071734;28;20029;-70
2023/01/12 18:44:39;;;;;;;28.30;10.80;;;;;;;;;;5071611;28;20040;-73
2023/01/12 18:49:52;;;;;;;34.05;11.70;;;;;;;;;;5071921;28;20074;-72
2023/01/12 18:55:04;;;;;;;34.30;10.40;;;;;;;;;;5071297;28;20040;-71
2023/01/12 18:57:30;;;;;;;38.15;10.40;;;;;;;;;;5071669;28;20028;-71
2023/01/12 19:00:13;;;;;;;27.27;9.55;;;;;;;;;;5071649;28;20533;-72
2023/01/12 19:02:40;;;;;;;24.27;9.88;;;;;;;;;;5071458;28;20024;-71
2023/01/12 19:05:22;;;;;;;26.67;9.43;;;;;;;;;;5069882;28;20539;-70
2023/01/12 19:10:23;;;;;;;24.25;10.52;;;;;;;;;;5071701;28;20329;-74
2023/01/12 19:12:49;;;;;;;30.50;9.88;;;;;;;;;;5071493;28;20033;-74
2023/01/12 19:18:00;;;;;;;22.02;8.70;;;;;;;;;;5071714;28;20039;-74
2023/01/12 19:20:28;;;;;;;28.25;8.63;;;;;;;;;;5071456;28;20108;-74
2023/01/12 19:28:39;;;;;;;18.17;8.18;;;;;;;;;;5059240;28;20029;-74
2023/01/12 19:31:08;;;;;;;29.48;9.32;;;;;;;;;;5071339;28;20049;-75
2023/01/12 19:33:34;;;;;;;20.25;8.95;;;;;;;;;;5071217;28;20025;-74
2023/01/12 19:36:07;;;;;;;23.38;8.18;;;;;;;;;;5071224;28;20103;-74
2023/01/12 19:38:37;;;;;;;24.83;8.63;;;;;;;;;;5071267;28;20418;-74
2023/01/12 19:41:13;;;;;;;17.15;7.18;;;;;;;;;;5071363;28;20025;-74
2023/01/12 19:43:43;;;;;;;22.25;8.00;;;;;;;;;;5069902;28;20059;-74
2023/01/12 19:46:11;;;;;;;23.52;8.43;;;;;;;;;;5070711;28;20059;-74
2023/01/12 19:48:38;;;;;;;17.60;8.35;;;;;;;;;;5071350;28;20028;-73
2023/01/12 19:51:07;;;;;;;20.08;8.23;;;;;;;;;;5074189;28;20021;-73
2023/01/12 19:53:33;;;;;;;18.40;7.93;;;;;;;;;;5073422;28;20027;-73
2023/01/12 19:56:00;;;;;;;17.73;8.15;;;;;;;;;;5074318;28;20020;-74
2023/01/12 19:58:27;;;;;;;20.88;7.55;;;;;;;;;;5073333;28;20025;-73
2023/01/12 20:00:54;;;;;;;15.30;6.35;;;;;;;;;;5074403;28;20032;-73
2023/01/12 20:03:21;;;;;;;15.18;7.00;;;;;;;;;;5074561;28;20017;-72
2023/01/12 20:05:51;;;;;;;16.48;7.85;;;;;;;;;;5074200;28;20030;-73
2023/01/12 20:08:21;;;;;;;17.45;7.07;;;;;;;;;;5074444;28;20048;-73
2023/01/12 20:10:52;;;;;;;18.80;6.28;;;;;;;;;;5074353;28;20493;-72
2023/01/12 20:13:18;;;;;;;14.48;6.65;;;;;;;;;;5074303;28;20052;-73
2023/01/12 20:15:44;;;;;;;21.65;7.28;;;;;;;;;;5073697;28;20486;-73
2023/01/12 20:18:12;;;;;;;11.52;6.88;;;;;;;;;;5074131;28;20029;-73
2023/01/12 20:20:39;;;;;;;12.98;6.28;;;;;;;;;;5074181;28;20020;-74
2023/01/12 20:23:05;;;;;;;15.87;5.90;;;;;;;;;;5072720;28;20465;-73
2023/01/12 20:25:31;;;;;;;13.57;6.97;;;;;;;;;;5072448;28;20021;-73
2023/01/12 20:27:57;;;;;;;13.82;6.88;;;;;;;;;;5072649;28;20116;-73
2023/01/12 20:30:24;;;;;;;15.93;6.88;;;;;;;;;;5074261;28;20036;-73
2023/01/12 20:32:51;;;;;;;14.50;5.40;;;;;;;;;;5072697;28;20390;-72
2023/01/12 20:35:18;;;;;;;11.48;6.32;;;;;;;;;;5073684;28;20028;-72
2023/01/12 20:37:44;;;;;;;14.63;7.03;;;;;;;;;;5074008;28;20119;-72
2023/01/12 20:40:11;;;;;;;15.70;7.28;;;;;;;;;;5072526;28;20062;-72
2023/01/12 20:42:37;;;;;;;11.05;6.07;;;;;;;;;;5073585;28;20040;-72
2023/01/12 20:45:04;;;;;;;15.57;6.15;;;;;;;;;;5073365;28;20104;-72
2023/01/12 20:47:30;;;;;;;13.35;6.32;;;;;;;;;;5073621;28;20432;-74
2023/01/12 20:49:57;;;;;;;16.50;6.57;;;;;;;;;;5073597;28;20146;-74
2023/01/12 20:52:23;;;;;;;15.48;6.93;;;;;;;;;;5074156;28;20374;-74
2023/01/12 20:54:50;;;;;;;8.98;5.90;;;;;;;;;;5073229;28;20101;-68
2023/01/12 20:57:16;;;;;;;13.48;6.13;;;;;;;;;;5072147;28;20123;-74
2023/01/12 20:59:42;;;;;;;8.27;6.05;;;;;;;;;;5072122;28;20028;-74
2023/01/12 21:02:11;;;;;;;16.63;6.50;;;;;;;;;;5073272;28;20451;-74
2023/01/12 21:04:37;;;;;;;12.35;5.70;;;;;;;;;;5071856;28;20395;-74
2023/01/12 21:07:03;;;;;;;9.63;5.93;;;;;;;;;;5073136;28;20038;-74
2023/01/12 21:09:29;;;;;;;12.45;6.47;;;;;;;;;;5073809;28;20016;-75
2023/01/12 21:11:55;;;;;;;13.57;5.40;;;;;;;;;;5073081;28;20031;-74
2023/01/12 21:14:22;;;;;;;10.43;6.15;;;;;;;;;;5071138;28;20012;-74
2023/01/12 21:16:48;;;;;;;17.38;6.10;;;;;;;;;;5061850;28;20364;-75
2023/01/12 21:19:14;;;;;;;17.33;6.65;;;;;;;;;;5070491;28;20025;-74
2023/01/12 21:21:40;;;;;;;8.90;5.70;;;;;;;;;;5061500;28;20021;-74
2023/01/12 21:24:06;;;;;;;14.95;5.90;;;;;;;;;;5089080;28;20497;-68
2023/01/12 21:26:32;;;;;;;22.08;6.00;;;;;;;;;;5093044;28;20046;-67
2023/01/12 21:28:58;;;;;;;13.38;5.55;;;;;;;;;;5093172;28;20064;-71
2023/01/12 21:31:24;;;;;;;12.32;5.32;;;;;;;;;;5093435;28;20024;-70
2023/01/12 21:33:50;;;;;;;9.60;5.22;;;;;;;;;;5093044;28;20452;-73
2023/01/12 21:36:17;;;;;;;10.93;5.65;;;;;;;;;;5092639;28;20035;-73
2023/01/12 21:38:43;;;;;;;12.88;4.93;;;;;;;;;;5092971;28;20030;-72
2023/01/12 21:41:09;;;;;;;15.15;5.20;;;;;;;;;;5093163;28;20048;-71
2023/01/12 21:43:35;;;;;;;20.67;4.95;;;;;;;;;;5092514;28;20471;-72
2023/01/12 21:46:03;;;;;;;12.75;5.88;;;;;;;;;;5091051;28;20529;-72
2023/01/12 21:48:29;;;;;;;11.45;5.18;;;;;;;;;;5092616;28;20063;-71
2023/01/12 21:51:00;;;;;;;11.35;5.43;;;;;;;;;;5092844;28;20020;-75
2023/01/12 21:53:26;;;;;;;15.23;5.90;;;;;;;;;;5092652;28;20028;-76
2023/01/12 21:55:54;;;;;;;11.30;5.18;;;;;;;;;;5092494;28;20034;-76
2023/01/12 21:58:20;;;;;;;15.07;5.32;;;;;;;;;;5092557;28;20020;-76
2023/01/12 22:00:46;;;;;;;11.55;4.53;;;;;;;;;;5092586;28;20067;-75
2023/01/12 22:03:12;;;;;;;12.27;5.57;;;;;;;;;;5092440;28;20063;-76
2023/01/12 22:05:38;;;;;;;12.38;4.88;;;;;;;;;;5092186;28;20020;-74
2023/01/12 22:08:04;;;;;;;12.18;5.00;;;;;;;;;;5092381;28;20028;-76
2023/01/12 22:10:30;;;;;;;12.15;5.32;;;;;;;;;;5092392;28;20039;-75
2023/01/12 22:12:58;;;;;;;10.60;5.18;;;;;;;;;;5092173;28;20020;-76
2023/01/12 22:15:25;;;;;;;11.25;5.30;;;;;;;;;;5082428;28;20383;-76